createdAt,value
2023-05-05T00:01:33.516Z,2.03
2023-05-05T00:04:00.646Z,2.15
2023-05-05T00:06:28.587Z,1.83
2023-05-05T00:08:57.027Z,1.80
2023-05-05T00:11:24.069Z,1.80
2023-05-05T00:13:51.554Z,2.03
2023-05-05T00:16:18.818Z,2.30
2023-05-05T00:18:45.954Z,1.92
2023-05-05T00:21:13.394Z,1.70
2023-05-05T00:23:40.429Z,2.20
2023-05-05T00:26:07.547Z,2.42
2023-05-05T00:28:34.585Z,2.35
2023-05-05T00:31:01.865Z,2.50
2023-05-05T00:33:29.816Z,2.70
2023-05-05T00:35:56.866Z,2.60
2023-05-05T00:38:23.957Z,3.30
2023-05-05T00:40:51.384Z,2.60
2023-05-05T00:43:18.641Z,2.47
2023-05-05T00:45:47.772Z,2.63
2023-05-05T00:48:16.938Z,2.37
2023-05-05T00:50:45.211Z,2.83
2023-05-05T00:53:12.864Z,3.00
2023-05-05T00:55:40.406Z,2.72
2023-05-05T00:58:08.270Z,2.97
2023-05-05T01:00:35.326Z,2.80
2023-05-05T01:03:03.574Z,2.80
2023-05-05T01:05:38.208Z,3.30
2023-05-05T01:08:48.119Z,2.95
2023-05-05T01:11:58.384Z,2.55
2023-05-05T01:14:39.918Z,2.67
2023-05-05T01:17:22.717Z,2.42
2023-05-05T01:20:02.963Z,2.70
2023-05-05T01:22:46.220Z,2.50
2023-05-05T01:26:02.561Z,2.97
2023-05-05T01:28:50.755Z,2.87
2023-05-05T01:31:41.594Z,2.90
2023-05-05T01:34:09.781Z,3.50
2023-05-05T01:36:38.972Z,2.67
2023-05-05T01:39:08.490Z,3.47
2023-05-05T01:41:41.150Z,2.80
2023-05-05T01:44:09.845Z,3.50
2023-05-05T01:46:43.776Z,3.58
2023-05-05T01:49:11.695Z,3.58
2023-05-05T01:51:39.594Z,3.25
2023-05-05T01:54:10.610Z,3.70
2023-05-05T01:56:38.843Z,3.80
2023-05-05T01:59:07.047Z,3.63
2023-05-05T02:01:36.123Z,2.92
2023-05-05T02:04:03.406Z,3.17
2023-05-05T02:06:33.440Z,3.10
2023-05-05T02:09:01.778Z,3.10
2023-05-05T02:11:29.690Z,3.42
2023-05-05T02:13:57.504Z,3.58
2023-05-05T02:16:24.948Z,3.42
2023-05-05T02:18:52.325Z,3.40
2023-05-05T02:21:20.520Z,3.63
2023-05-05T02:23:52.136Z,3.28
2023-05-05T02:26:21.785Z,3.67
2023-05-05T02:29:03.378Z,3.10
2023-05-05T02:31:31.776Z,2.93
2023-05-05T02:34:00.125Z,3.22
2023-05-05T02:36:29.864Z,3.50
2023-05-05T02:39:01.269Z,3.38
2023-05-05T02:41:29.208Z,2.83
2023-05-05T02:43:57.259Z,3.13
2023-05-05T02:46:24.626Z,2.88
2023-05-05T02:48:52.070Z,2.83
2023-05-05T02:51:19.304Z,2.88
2023-05-05T02:53:46.539Z,2.83
2023-05-05T02:56:27.476Z,3.40
2023-05-05T02:59:09.083Z,2.95
2023-05-05T03:01:49.511Z,3.20
2023-05-05T03:04:27.987Z,3.10
2023-05-05T03:06:59.772Z,2.97
2023-05-05T03:09:33.863Z,2.60
2023-05-05T03:12:07.205Z,3.05
2023-05-05T03:14:41.548Z,2.75
2023-05-05T03:17:11.649Z,2.90
2023-05-05T03:19:41.802Z,4.05
2023-05-05T03:22:09.041Z,3.20
2023-05-05T03:24:36.156Z,2.70
2023-05-05T03:27:03.394Z,3.35
2023-05-05T03:29:30.972Z,2.83
2023-05-05T03:31:58.402Z,3.60
2023-05-05T03:34:25.496Z,2.87
2023-05-05T03:36:52.554Z,3.13
2023-05-05T03:39:19.604Z,3.60
2023-05-05T03:41:46.673Z,3.33
2023-05-05T03:44:13.697Z,3.20
2023-05-05T03:46:40.752Z,3.03
2023-05-05T03:49:09.787Z,2.90
2023-05-05T03:51:37.257Z,2.92
2023-05-05T03:54:04.372Z,3.22
2023-05-05T03:56:32.008Z,3.60
2023-05-05T03:58:59.128Z,3.17
2023-05-05T04:01:26.291Z,3.13
2023-05-05T04:03:53.821Z,2.85
2023-05-05T04:06:21.120Z,2.97
2023-05-05T04:08:48.228Z,2.90
2023-05-05T04:11:16.089Z,3.43
2023-05-05T04:13:43.381Z,2.90
2023-05-05T04:16:10.518Z,3.08
2023-05-05T04:18:37.589Z,3.25
2023-05-05T04:21:04.701Z,3.92
2023-05-05T04:23:31.817Z,2.57
2023-05-05T04:25:58.898Z,2.70
2023-05-05T04:28:26.210Z,3.25
2023-05-05T04:30:53.512Z,3.40
2023-05-05T04:33:20.555Z,3.38
2023-05-05T04:35:47.676Z,2.70
2023-05-05T04:38:14.831Z,2.72
2023-05-05T04:40:42.799Z,3.20
2023-05-05T04:43:10.146Z,3.40
2023-05-05T04:45:37.250Z,3.38
2023-05-05T04:48:05.277Z,3.00
2023-05-05T04:50:32.649Z,3.13
2023-05-05T04:52:59.724Z,3.92
2023-05-05T04:55:27.278Z,3.17
2023-05-05T04:57:54.354Z,3.60
2023-05-05T05:00:21.711Z,3.07
2023-05-05T05:02:48.805Z,3.45
2023-05-05T05:05:15.990Z,3.40
2023-05-05T05:07:43.045Z,3.55
2023-05-05T05:10:10.866Z,3.25
2023-05-05T05:12:38.138Z,3.40
2023-05-05T05:15:05.582Z,3.78
2023-05-05T05:17:32.740Z,4.05
2023-05-05T05:20:04.566Z,3.20
2023-05-05T05:22:31.702Z,3.95
2023-05-05T05:24:59.309Z,3.30
2023-05-05T05:27:26.775Z,2.90
2023-05-05T05:29:53.823Z,3.30
2023-05-05T05:32:20.982Z,2.90
2023-05-05T05:34:48.049Z,3.17
2023-05-05T05:37:15.187Z,2.80
2023-05-05T05:39:43.494Z,2.45
2023-05-05T05:42:10.952Z,1.80
2023-05-05T05:44:38.403Z,2.40
2023-05-05T05:47:05.575Z,2.63
2023-05-05T05:49:32.972Z,2.43
2023-05-05T05:52:00.171Z,1.85
2023-05-05T05:54:27.445Z,2.33
2023-05-05T05:56:54.575Z,1.50
2023-05-05T05:59:22.131Z,1.52
2023-05-05T06:01:49.235Z,2.00
2023-05-05T06:04:16.297Z,1.92
2023-05-05T06:06:43.837Z,2.00
2023-05-05T06:09:10.904Z,1.55
2023-05-05T06:11:37.935Z,1.98
2023-05-05T06:14:05.340Z,1.73
2023-05-05T06:16:32.730Z,2.03
2023-05-05T06:19:00.305Z,1.95
2023-05-05T06:21:27.855Z,1.65
2023-05-05T06:23:54.935Z,1.73
2023-05-05T06:26:22.069Z,1.63
2023-05-05T06:28:49.696Z,2.00
2023-05-05T06:31:17.710Z,2.20
2023-05-05T06:33:44.929Z,1.50
2023-05-05T06:36:12.174Z,2.10
2023-05-05T06:38:39.292Z,1.83
2023-05-05T06:41:06.625Z,1.70
2023-05-05T06:43:33.725Z,1.70
2023-05-05T06:46:00.836Z,1.73
2023-05-05T06:48:27.925Z,1.75
2023-05-05T06:50:56.374Z,1.60
2023-05-05T06:53:23.685Z,1.85
2023-05-05T06:55:50.961Z,1.75
2023-05-05T06:58:18.106Z,1.60
2023-05-05T07:00:45.726Z,1.90
2023-05-05T07:03:13.191Z,2.10
2023-05-05T07:05:40.346Z,1.90
2023-05-05T07:08:08.981Z,1.80
2023-05-05T07:10:37.014Z,1.77
2023-05-05T07:13:04.117Z,1.38
2023-05-05T07:15:31.250Z,1.60
2023-05-05T07:17:58.579Z,1.60
2023-05-05T07:20:26.166Z,1.73
2023-05-05T07:22:53.291Z,1.70
2023-05-05T07:25:21.056Z,1.60
2023-05-05T07:27:48.113Z,1.30
2023-05-05T07:30:18.027Z,1.90
2023-05-05T07:32:46.378Z,1.73
2023-05-05T07:35:14.057Z,1.60
2023-05-05T07:37:41.122Z,2.00
2023-05-05T07:40:09.977Z,1.50
2023-05-05T07:42:37.468Z,1.88
2023-05-05T07:45:05.322Z,1.90
2023-05-05T07:47:32.644Z,1.40
2023-05-05T07:49:59.780Z,1.60
2023-05-05T07:52:43.386Z,1.50
2023-05-05T07:55:13.806Z,1.60
2023-05-05T07:57:41.107Z,2.05
2023-05-05T08:00:09.655Z,1.80
2023-05-05T08:02:37.436Z,1.60
2023-05-05T08:05:04.807Z,1.17
2023-05-05T08:07:32.014Z,1.80
2023-05-05T08:09:59.159Z,1.70
2023-05-05T08:12:26.304Z,1.40
2023-05-05T08:14:53.424Z,1.88
2023-05-05T08:17:20.551Z,1.37
2023-05-05T08:19:47.648Z,1.90
2023-05-05T08:22:14.995Z,1.60
2023-05-05T08:24:42.085Z,1.60
2023-05-05T08:27:09.124Z,1.60
2023-05-05T08:29:36.243Z,1.77
2023-05-05T08:32:03.332Z,1.60
2023-05-05T08:34:30.833Z,1.38
2023-05-05T08:36:57.905Z,1.60
2023-05-05T08:39:25.444Z,1.30
2023-05-05T08:41:52.501Z,1.90
2023-05-05T08:44:19.637Z,1.17
2023-05-05T08:46:46.901Z,1.40
2023-05-05T08:49:16.257Z,1.58
2023-05-05T08:51:44.338Z,1.40
2023-05-05T08:54:15.570Z,1.63
2023-05-05T08:56:42.682Z,1.33
2023-05-05T08:59:11.127Z,1.50
2023-05-05T09:01:38.463Z,1.20
2023-05-05T09:04:07.750Z,1.40
2023-05-05T09:06:35.579Z,1.20
2023-05-05T09:09:03.006Z,1.20
2023-05-05T09:11:30.048Z,1.52
2023-05-05T09:13:57.528Z,1.48
2023-05-05T09:16:24.833Z,1.35
2023-05-05T09:19:00.917Z,1.43
2023-05-05T09:21:29.218Z,1.40
2023-05-05T09:24:10.785Z,1.67
2023-05-05T09:26:40.815Z,1.20
2023-05-05T09:29:08.058Z,1.30
2023-05-05T09:31:36.545Z,1.40
2023-05-05T09:34:14.994Z,1.48
2023-05-05T09:36:49.014Z,1.40
2023-05-05T09:39:20.573Z,1.52
2023-05-05T09:41:48.039Z,1.40
2023-05-05T09:44:16.222Z,1.33
2023-05-05T09:46:51.496Z,1.75
2023-05-05T09:49:20.289Z,1.60
2023-05-05T09:51:47.754Z,1.63
2023-05-05T09:54:28.804Z,2.00
2023-05-05T09:56:58.990Z,1.50
2023-05-05T09:59:26.183Z,2.42
2023-05-05T10:01:53.619Z,1.45
2023-05-05T10:04:28.249Z,1.42
2023-05-05T10:06:57.648Z,2.08
2023-05-05T10:09:25.927Z,1.60
2023-05-05T10:11:53.865Z,1.80
2023-05-05T10:14:21.531Z,1.67
2023-05-05T10:16:51.013Z,1.42
2023-05-05T10:19:19.830Z,1.73
2023-05-05T10:21:50.416Z,1.40
2023-05-05T10:24:36.988Z,1.52
2023-05-05T10:27:12.611Z,1.73
2023-05-05T10:30:02.744Z,1.40
2023-05-05T10:32:57.467Z,1.50
2023-05-05T10:35:33.011Z,1.47
2023-05-05T10:38:00.280Z,1.60
2023-05-05T10:40:28.018Z,1.55
2023-05-05T10:42:55.601Z,1.70
2023-05-05T10:45:23.044Z,1.70
2023-05-05T10:47:51.315Z,1.37
2023-05-05T10:50:25.656Z,1.65
2023-05-05T10:53:18.414Z,2.25
2023-05-05T10:56:14.244Z,1.40
2023-05-05T10:58:58.457Z,1.17
2023-05-05T11:01:34.576Z,1.60
2023-05-05T11:04:19.825Z,1.83
2023-05-05T11:07:10.473Z,1.67
2023-05-05T11:10:03.734Z,1.70
2023-05-05T11:12:32.035Z,1.55
2023-05-05T11:15:27.517Z,1.90
2023-05-05T11:17:58.826Z,1.70
2023-05-05T11:20:34.931Z,1.83
2023-05-05T11:23:04.852Z,1.80
2023-05-05T11:25:35.674Z,1.77
2023-05-05T11:28:15.914Z,1.70
2023-05-05T11:30:55.166Z,1.80
2023-05-05T11:33:40.551Z,1.98
2023-05-05T11:36:12.453Z,2.28
2023-05-05T11:38:39.527Z,1.70
2023-05-05T11:41:18.104Z,2.10
2023-05-05T11:43:45.242Z,1.90
2023-05-05T11:46:13.797Z,1.70
2023-05-05T11:48:46.008Z,1.75
2023-05-05T11:51:14.499Z,1.58
2023-05-05T11:53:48.898Z,1.50
2023-05-05T11:56:21.716Z,2.63
2023-05-05T11:58:49.864Z,1.58
2023-05-05T12:01:17.146Z,1.50
2023-05-05T12:03:45.605Z,1.35
2023-05-05T12:06:13.369Z,1.50
2023-05-05T12:08:41.333Z,2.00
2023-05-05T12:11:10.055Z,1.25
2023-05-05T12:13:37.415Z,1.63
2023-05-05T12:16:11.114Z,1.60
2023-05-05T12:18:39.431Z,1.33
2023-05-05T12:21:18.278Z,1.33
2023-05-05T12:23:45.833Z,2.13
2023-05-05T12:26:26.715Z,1.40
2023-05-05T12:28:54.156Z,1.58
2023-05-05T12:31:21.322Z,1.40
2023-05-05T12:33:48.692Z,1.45
2023-05-05T12:36:16.422Z,1.25
2023-05-05T12:38:43.500Z,1.52
2023-05-05T12:41:11.445Z,1.42
2023-05-05T12:43:38.723Z,1.30
2023-05-05T12:46:11.060Z,1.48
2023-05-05T12:48:39.865Z,1.77
2023-05-05T12:51:17.406Z,1.40
2023-05-05T12:53:45.929Z,1.40
2023-05-05T12:56:31.238Z,1.80
2023-05-05T12:58:58.406Z,1.45
2023-05-05T13:01:25.467Z,2.08
2023-05-05T13:04:06.556Z,1.23
2023-05-05T13:06:33.864Z,1.50
2023-05-05T13:09:00.925Z,1.40
2023-05-05T13:11:28.390Z,1.48
2023-05-05T13:13:55.890Z,1.67
2023-05-05T13:16:23.056Z,1.70
2023-05-05T13:18:51.388Z,1.70
2023-05-05T13:21:18.443Z,1.73
2023-05-05T13:23:45.754Z,1.35
2023-05-05T13:26:13.539Z,1.48
2023-05-05T13:28:41.100Z,1.80
2023-05-05T13:31:08.275Z,1.45
2023-05-05T13:33:36.074Z,1.70
2023-05-05T13:36:03.505Z,1.92
2023-05-05T13:38:32.971Z,1.95
2023-05-05T13:41:00.225Z,1.58
2023-05-05T13:43:27.318Z,1.60
2023-05-05T13:45:55.979Z,1.83
2023-05-05T13:48:27.569Z,2.22
2023-05-05T13:50:54.679Z,1.80
2023-05-05T13:53:21.844Z,1.85
2023-05-05T13:55:48.982Z,1.85
2023-05-05T13:58:16.080Z,1.80
2023-05-05T14:00:43.188Z,2.10
2023-05-05T14:03:10.243Z,2.25
2023-05-05T14:05:42.646Z,2.50
2023-05-05T14:08:09.928Z,1.80
2023-05-05T14:10:37.055Z,1.47
2023-05-05T14:13:04.372Z,2.20
2023-05-05T14:15:31.581Z,2.17
2023-05-05T14:17:59.642Z,1.85
2023-05-05T14:20:27.078Z,2.05
2023-05-05T14:22:54.530Z,1.80
2023-05-05T14:25:21.748Z,2.03
2023-05-05T14:27:48.918Z,1.90
2023-05-05T14:30:16.203Z,1.92
2023-05-05T14:32:43.271Z,2.53
2023-05-05T14:35:10.495Z,1.50
2023-05-05T14:37:37.562Z,1.95
2023-05-05T14:40:05.833Z,1.98
2023-05-05T14:42:33.163Z,2.25
2023-05-05T14:45:00.208Z,2.65
2023-05-05T14:47:27.288Z,1.87
2023-05-05T14:49:54.362Z,2.10
2023-05-05T14:52:21.398Z,1.88
2023-05-05T14:54:48.455Z,2.30
2023-05-05T14:57:15.531Z,2.22
2023-05-05T14:59:42.752Z,2.30
2023-05-05T15:02:09.872Z,2.63
2023-05-05T15:04:38.042Z,1.83
2023-05-05T15:07:05.135Z,2.00
2023-05-05T15:09:32.165Z,2.53
2023-05-05T15:11:59.266Z,2.10
2023-05-05T15:14:26.495Z,2.30
2023-05-05T15:16:53.582Z,2.40
2023-05-05T15:19:20.631Z,2.05
2023-05-05T15:21:53.540Z,2.05
2023-05-05T15:24:21.717Z,2.50
2023-05-05T15:26:48.779Z,2.30
2023-05-05T15:29:15.829Z,2.33
2023-05-05T15:31:43.013Z,1.90
2023-05-05T15:34:10.135Z,2.33
2023-05-05T15:36:37.216Z,1.60
2023-05-05T15:39:04.342Z,1.95
2023-05-05T15:41:33.867Z,2.00
2023-05-05T15:44:03.034Z,2.75
2023-05-05T15:46:32.796Z,2.65
2023-05-05T15:48:59.998Z,2.30
2023-05-05T15:51:27.363Z,2.30
2023-05-05T15:53:54.485Z,2.03
2023-05-05T15:56:21.636Z,2.92
2023-05-05T15:58:48.707Z,2.00
2023-05-05T16:01:16.423Z,2.47
2023-05-05T16:03:43.623Z,2.25
2023-05-05T16:06:13.632Z,2.40
2023-05-05T16:08:40.837Z,2.67
2023-05-05T16:11:07.968Z,2.78
2023-05-05T16:13:35.139Z,2.60
2023-05-05T16:16:02.248Z,2.30
2023-05-05T16:18:29.331Z,2.17
2023-05-05T16:20:56.445Z,2.25
2023-05-05T16:23:24.474Z,2.20
2023-05-05T16:25:51.726Z,2.37
2023-05-05T16:28:18.928Z,2.45
2023-05-05T16:30:46.199Z,2.30
2023-05-05T16:33:13.485Z,2.42
2023-05-05T16:35:40.636Z,2.60
2023-05-05T16:38:07.908Z,2.43
2023-05-05T16:40:37.084Z,2.40
2023-05-05T16:43:04.159Z,2.50
2023-05-05T16:45:31.418Z,2.85
2023-05-05T16:47:58.457Z,2.42
2023-05-05T16:50:25.645Z,2.47
2023-05-05T16:52:53.081Z,2.40
2023-05-05T16:55:20.519Z,2.97
2023-05-05T16:57:48.172Z,3.50
2023-05-05T17:00:15.667Z,2.65
2023-05-05T17:02:42.865Z,2.40
2023-05-05T17:05:10.161Z,2.83
2023-05-05T17:07:37.743Z,3.03
2023-05-05T17:10:05.426Z,2.83
2023-05-05T17:12:32.589Z,2.65
2023-05-05T17:15:00.119Z,2.50
2023-05-05T17:17:27.775Z,2.42
2023-05-05T17:19:54.849Z,2.33
2023-05-05T17:22:22.024Z,2.25
2023-05-05T17:24:49.191Z,2.75
2023-05-05T17:27:16.533Z,2.20
2023-05-05T17:29:43.910Z,2.70
2023-05-05T17:32:11.121Z,2.70
2023-05-05T17:34:38.212Z,2.60
2023-05-05T17:37:05.424Z,2.80
2023-05-05T17:39:32.963Z,2.97
2023-05-05T17:42:00.038Z,3.00
2023-05-05T17:44:27.120Z,2.78
2023-05-05T17:46:54.170Z,2.60
2023-05-05T17:49:21.588Z,3.65
2023-05-05T17:51:48.742Z,3.70
2023-05-05T17:54:16.140Z,3.42
2023-05-05T17:56:43.272Z,3.33
2023-05-05T17:59:10.341Z,3.10
2023-05-05T18:01:37.434Z,3.25
2023-05-05T18:04:04.542Z,3.53
2023-05-05T18:06:31.774Z,3.90
2023-05-05T18:08:58.842Z,3.60
2023-05-05T18:11:28.725Z,3.30
2023-05-05T18:13:56.183Z,3.20
2023-05-05T18:16:23.294Z,3.53
2023-05-05T18:18:50.407Z,3.92
2023-05-05T18:21:17.541Z,3.63
2023-05-05T18:23:44.633Z,4.20
2023-05-05T18:26:11.764Z,4.20
2023-05-05T18:28:39.103Z,3.10
2023-05-05T18:31:06.529Z,2.78
2023-05-05T18:33:33.696Z,2.92
2023-05-05T18:36:02.359Z,3.08
2023-05-05T18:38:29.707Z,2.80
2023-05-05T18:40:56.895Z,3.37
2023-05-05T18:43:23.998Z,2.97
2023-05-05T18:45:51.162Z,2.90
2023-05-05T18:48:18.216Z,3.22
2023-05-05T18:50:46.889Z,2.90
2023-05-05T18:53:14.911Z,3.07
2023-05-05T18:55:43.354Z,2.78
2023-05-05T18:58:10.472Z,2.60
2023-05-05T19:00:38.189Z,3.47
2023-05-05T19:03:05.574Z,3.33
2023-05-05T19:05:32.673Z,3.03
2023-05-05T19:07:59.727Z,3.20
2023-05-05T19:10:27.065Z,3.33
2023-05-05T19:12:55.991Z,3.03
2023-05-05T19:15:23.358Z,3.00
2023-05-05T19:17:50.499Z,2.63
2023-05-05T19:20:17.599Z,3.05
2023-05-05T19:22:44.673Z,2.55
2023-05-05T19:25:14.154Z,2.38
2023-05-05T19:27:41.434Z,2.20
2023-05-05T19:30:09.330Z,2.10
2023-05-05T19:32:36.482Z,2.00
2023-05-05T19:35:03.798Z,2.55
2023-05-05T19:37:31.246Z,2.33
2023-05-05T19:39:58.473Z,2.13
2023-05-05T19:42:26.111Z,1.90
2023-05-05T19:44:53.155Z,2.10
2023-05-05T19:47:20.700Z,2.40
2023-05-05T19:49:47.772Z,2.83
2023-05-05T19:52:14.845Z,2.65
2023-05-05T19:54:43.363Z,1.60
2023-05-05T19:57:10.497Z,2.10
2023-05-05T19:59:37.548Z,2.17
2023-05-05T20:02:04.809Z,2.10
2023-05-05T20:04:31.904Z,2.45
2023-05-05T20:06:59.556Z,2.20
2023-05-05T20:09:27.464Z,2.65
2023-05-05T20:11:55.801Z,2.42
2023-05-05T20:14:22.917Z,2.38
2023-05-05T20:16:50.151Z,2.58
2023-05-05T20:19:18.292Z,2.33
2023-05-05T20:21:45.955Z,2.30
2023-05-05T20:24:13.159Z,2.25
2023-05-05T20:26:40.527Z,2.30
2023-05-05T20:29:07.600Z,2.30
2023-05-05T20:31:35.007Z,2.50
2023-05-05T20:34:02.235Z,2.47
2023-05-05T20:36:29.298Z,2.42
2023-05-05T20:38:56.381Z,2.50
2023-05-05T20:41:23.540Z,2.40
2023-05-05T20:43:50.707Z,2.37
2023-05-05T20:46:17.918Z,2.65
2023-05-05T20:48:45.107Z,2.22
2023-05-05T20:51:12.217Z,2.30
2023-05-05T20:53:39.411Z,2.25
2023-05-05T20:56:08.675Z,2.30
2023-05-05T20:58:36.272Z,2.75
2023-05-05T21:01:03.466Z,2.35
2023-05-05T21:03:30.647Z,2.50
2023-05-05T21:06:00.246Z,3.13
2023-05-05T21:08:27.405Z,2.70
2023-05-05T21:10:54.498Z,3.45
2023-05-05T21:13:21.701Z,3.60
2023-05-05T21:15:50.386Z,3.47
2023-05-05T21:18:17.520Z,3.60
2023-05-05T21:20:44.671Z,3.43
2023-05-05T21:23:12.146Z,3.53
2023-05-05T21:25:39.435Z,3.38
2023-05-05T21:28:06.659Z,3.60
2023-05-05T21:30:33.820Z,3.70
2023-05-05T21:33:00.906Z,3.60
2023-05-05T21:35:28.144Z,3.53
2023-05-05T21:37:55.671Z,3.58
2023-05-05T21:40:22.787Z,3.42
2023-05-05T21:42:49.935Z,3.92
2023-05-05T21:45:17.052Z,3.67
2023-05-05T21:47:44.227Z,3.88
2023-05-05T21:50:12.375Z,4.00
2023-05-05T21:52:39.747Z,4.10
2023-05-05T21:55:07.250Z,3.67
2023-05-05T21:57:34.472Z,4.00
2023-05-05T22:00:01.677Z,3.88
2023-05-05T22:02:30.614Z,5.00
2023-05-05T22:04:57.777Z,4.13
2023-05-05T22:07:26.065Z,3.85
2023-05-05T22:09:53.191Z,4.03
2023-05-05T22:12:20.338Z,4.30
2023-05-05T22:14:47.592Z,4.32
2023-05-05T22:17:14.746Z,4.45
2023-05-05T22:19:41.835Z,4.43
2023-05-05T22:22:09.041Z,4.70
2023-05-05T22:24:36.213Z,5.07
2023-05-05T22:27:03.344Z,4.68
2023-05-05T22:29:30.544Z,4.78
2023-05-05T22:31:57.667Z,5.53
2023-05-05T22:34:25.826Z,5.10
2023-05-05T22:36:52.954Z,5.80
2023-05-05T22:39:20.350Z,5.20
2023-05-05T22:41:47.479Z,5.35
2023-05-05T22:44:15.282Z,6.57
2023-05-05T22:46:42.444Z,5.77
2023-05-05T22:49:09.632Z,6.10
2023-05-05T22:51:36.827Z,5.53
2023-05-05T22:54:04.081Z,6.47
2023-05-05T22:56:31.568Z,6.07
2023-05-05T22:58:58.698Z,5.40
2023-05-05T23:01:26.350Z,5.68
2023-05-05T23:03:53.665Z,5.57
2023-05-05T23:06:20.783Z,5.90
2023-05-05T23:08:49.026Z,5.75
2023-05-05T23:11:16.314Z,5.83
2023-05-05T23:13:43.434Z,6.20
2023-05-05T23:16:10.637Z,6.35
2023-05-05T23:18:38.779Z,5.90
2023-05-05T23:21:05.941Z,5.80
2023-05-05T23:23:33.021Z,6.23
2023-05-05T23:26:00.158Z,5.97
2023-05-05T23:28:27.319Z,6.45
2023-05-05T23:30:54.456Z,6.00
2023-05-05T23:33:21.581Z,5.15
2023-05-05T23:35:48.805Z,5.87
2023-05-05T23:38:16.200Z,6.25
2023-05-05T23:40:43.337Z,5.32
2023-05-05T23:43:12.106Z,5.65
2023-05-05T23:45:39.291Z,6.35
2023-05-05T23:48:06.487Z,5.40
2023-05-05T23:50:33.688Z,5.68
2023-05-05T23:53:00.829Z,5.47
2023-05-05T23:55:27.987Z,6.13
2023-05-05T23:57:55.437Z,6.65
